Time;durP1;ratioP1;P1;durP2;ratioP2;P2;SDS_P1;SDS_P2;PMS_P1;PMS_P2;Temp;Humidity;BMP_temperature;BMP_pressure;BME280_temperature;BME280_humidity;BME280_pressure;Samples;Min_cycle;Max_cycle;Signal;HPM_P1;HPM_P2
2023/10/30 00:01:09;;;;;;;;;;;9.30;90.80;;;;;;5057866;28;20379;-73
2023/10/30 00:03:35;;;;;;;;;;;9.20;90.80;;;;;;5053780;28;19916;-75
2023/10/30 00:06:00;;;;;;;;;;;9.30;90.80;;;;;;5056523;28;19923;-74
2023/10/30 00:08:26;;;;;;;;;;;9.40;90.70;;;;;;5055578;28;19919;-73
2023/10/30 00:10:51;;;;;;;;;;;9.30;90.70;;;;;;5055009;28;20278;-73
2023/10/30 00:13:17;;;;;;;;;;;9.30;90.70;;;;;;5053621;28;19924;-73
2023/10/30 00:15:42;;;;;;;;;;;9.20;90.50;;;;;;5051675;28;19920;-74
2023/10/30 00:18:08;;;;;;;;;;;9.30;90.90;;;;;;5055422;28;19962;-73
2023/10/30 00:20:39;;;;;;;;;;;9.30;90.80;;;;;;5051498;28;19936;-74
2023/10/30 00:23:05;;;;;;;;;;;9.40;90.60;;;;;;5051902;28;19990;-74
2023/10/30 00:25:31;;;;;;;;;;;9.30;90.70;;;;;;5055692;28;19972;-73
2023/10/30 00:27:59;;;;;;;;;;;9.20;90.50;;;;;;5059564;28;19912;-74
2023/10/30 00:30:26;;;;;;;;;;;9.00;91.00;;;;;;5052933;28;19909;-74
2023/10/30 00:32:51;;;;;;;;;;;9.00;91.20;;;;;;5054792;28;19931;-74
2023/10/30 00:35:17;;;;;;;;;;;9.10;91.30;;;;;;5053363;28;19916;-75
2023/10/30 00:37:43;;;;;;;;;;;9.20;91.80;;;;;;5051005;28;19912;-74
2023/10/30 00:40:09;;;;;;;;;;;9.10;91.70;;;;;;5049325;28;19915;-74
2023/10/30 00:42:35;;;;;;;;;;;9.10;91.80;;;;;;5049176;28;19909;-74
2023/10/30 00:45:03;;;;;;;;;;;9.00;91.90;;;;;;5043778;28;19923;-73
2023/10/30 00:47:28;;;;;;;;;;;9.00;92.00;;;;;;5058468;28;19908;-73
2023/10/30 00:49:54;;;;;;;;;;;9.10;92.30;;;;;;5081797;28;19920;-72
2023/10/30 00:52:19;;;;;;;;;;;9.00;92.40;;;;;;5048482;28;19951;-73
2023/10/30 00:54:45;;;;;;;;;;;8.90;92.60;;;;;;5050210;28;20325;-74
2023/10/30 00:57:11;;;;;;;;;;;9.00;93.10;;;;;;5041177;28;20382;-74
2023/10/30 00:59:37;;;;;;;;;;;8.90;93.00;;;;;;5038784;28;20383;-74
2023/10/30 01:02:02;;;;;;;;;;;8.80;93.10;;;;;;5048191;28;19924;-74
2023/10/30 01:04:28;;;;;;;;;;;8.70;93.10;;;;;;5051897;28;19951;-74
2023/10/30 01:06:54;;;;;;;;;;;8.70;93.40;;;;;;5050246;28;20290;-73
2023/10/30 01:09:19;;;;;;;;;;;8.60;94.20;;;;;;5045360;28;19936;-73
2023/10/30 01:11:45;;;;;;;;;;;8.70;94.70;;;;;;5049401;28;20000;-75
2023/10/30 01:14:10;;;;;;;;;;;8.70;95.10;;;;;;5049583;28;19920;-74
2023/10/30 01:16:36;;;;;;;;;;;8.70;95.30;;;;;;5048715;28;19919;-74
2023/10/30 01:19:02;;;;;;;;;;;8.60;95.90;;;;;;5045896;28;19920;-73
2023/10/30 01:21:27;;;;;;;;;;;8.60;95.60;;;;;;5045383;28;19924;-73
2023/10/30 01:23:53;;;;;;;;;;;8.60;96.00;;;;;;5044657;28;19924;-73
2023/10/30 01:26:18;;;;;;;;;;;8.50;96.30;;;;;;5053234;28;19924;-73
2023/10/30 01:28:44;;;;;;;;;;;8.50;96.80;;;;;;5050072;28;19921;-74
2023/10/30 01:31:09;;;;;;;;;;;8.50;96.90;;;;;;5049971;28;19958;-74
2023/10/30 01:33:35;;;;;;;;;;;8.50;96.80;;;;;;5055171;28;19967;-74
2023/10/30 01:36:00;;;;;;;;;;;8.50;97.10;;;;;;5050316;28;19924;-74
2023/10/30 01:38:26;;;;;;;;;;;8.50;97.90;;;;;;5055253;28;19950;-74
2023/10/30 01:40:52;;;;;;;;;;;8.40;97.80;;;;;;5050456;28;19963;-73
2023/10/30 01:43:31;;;;;;;;;;;8.40;97.90;;;;;;5046515;28;19917;-75
2023/10/30 01:45:56;;;;;;;;;;;8.40;98.10;;;;;;5042412;28;19908;-74
2023/10/30 01:48:22;;;;;;;;;;;8.30;98.20;;;;;;5044914;28;20087;-74
2023/10/30 01:50:49;;;;;;;;;;;8.20;98.00;;;;;;5042340;28;19925;-73
2023/10/30 01:53:23;;;;;;;;;;;8.20;98.30;;;;;;5043351;28;20341;-74
2023/10/30 01:55:49;;;;;;;;;;;8.30;98.50;;;;;;5047588;28;20394;-74
2023/10/30 01:58:15;;;;;;;;;;;8.30;98.60;;;;;;5044972;28;19915;-75
2023/10/30 02:00:45;;;;;;;;;;;8.20;98.60;;;;;;5044333;28;19908;-74
2023/10/30 02:03:11;;;;;;;;;;;8.20;98.80;;;;;;5046142;28;19913;-72
2023/10/30 02:05:37;;;;;;;;;;;8.20;98.80;;;;;;5045736;28;19917;-74
2023/10/30 02:08:03;;;;;;;;;;;8.20;99.00;;;;;;5048523;28;20050;-75
2023/10/30 02:10:28;;;;;;;;;;;8.20;99.10;;;;;;5047969;28;20003;-75
2023/10/30 02:12:54;;;;;;;;;;;8.10;99.00;;;;;;5040739;28;20453;-74
2023/10/30 02:15:19;;;;;;;;;;;8.10;99.00;;;;;;5048015;28;19998;-75
2023/10/30 02:17:45;;;;;;;;;;;8.10;99.00;;;;;;5045525;28;19920;-74
2023/10/30 02:20:13;;;;;;;;;;;8.10;99.40;;;;;;5047861;28;20398;-73
2023/10/30 02:22:39;;;;;;;;;;;8.10;99.40;;;;;;5048387;28;20019;-75
2023/10/30 02:25:05;;;;;;;;;;;8.20;99.60;;;;;;5042958;28;20066;-73
2023/10/30 02:27:31;;;;;;;;;;;8.20;99.60;;;;;;5048549;28;19913;-75
2023/10/30 02:29:57;;;;;;;;;;;8.20;99.60;;;;;;5048709;28;19958;-75
2023/10/30 02:32:23;;;;;;;;;;;8.20;99.80;;;;;;5050359;28;19925;-74
2023/10/30 02:34:48;;;;;;;;;;;8.30;99.90;;;;;;5048688;28;19925;-73
2023/10/30 02:37:15;;;;;;;;;;;8.30;99.70;;;;;;5052991;28;19925;-73
2023/10/30 02:39:41;;;;;;;;;;;8.30;99.60;;;;;;5044157;28;19974;-74
2023/10/30 02:42:08;;;;;;;;;;;8.20;99.60;;;;;;5049893;28;19917;-73
2023/10/30 02:44:33;;;;;;;;;;;8.20;99.60;;;;;;5045429;28;19935;-73
2023/10/30 02:46:59;;;;;;;;;;;8.20;99.60;;;;;;5051224;28;19908;-75
2023/10/30 02:49:25;;;;;;;;;;;8.30;99.70;;;;;;5047187;28;19909;-73
2023/10/30 02:51:51;;;;;;;;;;;8.20;99.70;;;;;;5048722;28;19948;-74
2023/10/30 02:54:16;;;;;;;;;;;8.30;99.80;;;;;;5048735;28;20438;-73
2023/10/30 02:56:42;;;;;;;;;;;8.20;99.70;;;;;;5044857;28;19934;-73
2023/10/30 02:59:08;;;;;;;;;;;8.20;99.40;;;;;;5038846;28;19912;-74
2023/10/30 03:01:34;;;;;;;;;;;8.10;99.40;;;;;;5044885;28;19913;-73
2023/10/30 03:04:01;;;;;;;;;;;8.00;99.40;;;;;;5049235;28;19913;-74
2023/10/30 03:06:26;;;;;;;;;;;8.00;99.30;;;;;;5045730;28;19916;-73
2023/10/30 03:08:52;;;;;;;;;;;7.90;99.50;;;;;;5053703;28;20302;-73
2023/10/30 03:11:18;;;;;;;;;;;8.00;99.60;;;;;;5043935;28;19963;-74
2023/10/30 03:13:43;;;;;;;;;;;8.00;99.60;;;;;;5050658;28;19963;-73
2023/10/30 03:16:09;;;;;;;;;;;7.90;99.40;;;;;;5051583;28;19917;-73
2023/10/30 03:18:34;;;;;;;;;;;8.00;99.70;;;;;;5049726;28;19935;-73
2023/10/30 03:21:00;;;;;;;;;;;7.90;99.40;;;;;;5055671;28;19912;-74
2023/10/30 03:23:25;;;;;;;;;;;7.90;99.50;;;;;;5047350;28;19978;-75
2023/10/30 03:25:51;;;;;;;;;;;7.80;99.50;;;;;;5082661;28;19923;-74
2023/10/30 03:28:16;;;;;;;;;;;7.80;99.60;;;;;;5053365;28;20000;-76
2023/10/30 03:30:42;;;;;;;;;;;7.80;99.70;;;;;;5047995;28;19913;-74
2023/10/30 03:33:08;;;;;;;;;;;7.80;99.90;;;;;;5054960;28;20402;-73
2023/10/30 03:35:38;;;;;;;;;;;7.80;99.90;;;;;;5049235;28;19951;-74
2023/10/30 03:38:03;;;;;;;;;;;7.80;99.90;;;;;;5050997;28;19920;-75
2023/10/30 03:40:29;;;;;;;;;;;7.80;99.90;;;;;;5053940;28;19912;-73
2023/10/30 03:42:54;;;;;;;;;;;7.80;99.90;;;;;;5048803;28;19998;-76
2023/10/30 03:45:20;;;;;;;;;;;7.70;99.90;;;;;;5055785;28;20326;-76
2023/10/30 03:47:46;;;;;;;;;;;7.80;99.90;;;;;;5051941;28;20430;-75
2023/10/30 03:50:13;;;;;;;;;;;7.90;99.90;;;;;;5058532;28;20004;-74
2023/10/30 03:52:54;;;;;;;;;;;7.90;99.90;;;;;;5053105;28;19916;-76
2023/10/30 03:55:20;;;;;;;;;;;8.00;99.90;;;;;;5055783;28;19912;-74
2023/10/30 03:57:45;;;;;;;;;;;8.00;99.90;;;;;;5047780;28;19917;-73
2023/10/30 04:00:11;;;;;;;;;;;8.00;99.90;;;;;;5052572;28;19922;-75
2023/10/30 04:02:37;;;;;;;;;;;8.00;99.90;;;;;;5051069;28;19913;-75
2023/10/30 04:05:03;;;;;;;;;;;7.90;99.90;;;;;;5052277;28;20410;-73
2023/10/30 04:07:28;;;;;;;;;;;7.90;99.90;;;;;;5054327;28;19912;-74
2023/10/30 04:09:54;;;;;;;;;;;7.80;99.90;;;;;;5050835;28;19924;-73
2023/10/30 04:12:20;;;;;;;;;;;7.80;99.90;;;;;;5052765;28;19939;-75
2023/10/30 04:14:46;;;;;;;;;;;7.60;99.90;;;;;;5055397;28;19920;-75
2023/10/30 04:17:12;;;;;;;;;;;7.70;99.90;;;;;;5052834;28;20006;-74
2023/10/30 04:19:38;;;;;;;;;;;7.70;99.90;;;;;;5053160;28;20379;-75
2023/10/30 04:22:03;;;;;;;;;;;7.60;99.90;;;;;;5052147;28;19913;-74
2023/10/30 04:24:29;;;;;;;;;;;7.60;99.90;;;;;;5052128;28;19917;-74
2023/10/30 04:26:55;;;;;;;;;;;7.60;99.90;;;;;;5054376;28;20358;-75
2023/10/30 04:29:20;;;;;;;;;;;7.70;99.90;;;;;;5051344;28;19960;-74
2023/10/30 04:31:46;;;;;;;;;;;7.70;99.90;;;;;;5051909;28;20367;-74
2023/10/30 04:34:11;;;;;;;;;;;7.80;99.90;;;;;;5051653;28;19932;-72
2023/10/30 04:36:37;;;;;;;;;;;7.90;99.90;;;;;;5051093;28;19916;-73
2023/10/30 04:39:02;;;;;;;;;;;8.00;99.90;;;;;;5051976;28;20384;-73
2023/10/30 04:41:30;;;;;;;;;;;8.20;99.90;;;;;;5044559;28;19921;-74
2023/10/30 04:43:55;;;;;;;;;;;8.30;99.90;;;;;;5053458;28;19916;-73
2023/10/30 04:46:21;;;;;;;;;;;8.40;99.90;;;;;;5055604;28;19916;-74
2023/10/30 04:48:46;;;;;;;;;;;8.40;99.90;;;;;;5056151;28;20316;-73
2023/10/30 04:51:12;;;;;;;;;;;8.50;99.90;;;;;;5047384;28;20393;-75
2023/10/30 04:53:38;;;;;;;;;;;8.60;99.90;;;;;;5082660;28;19928;-74
2023/10/30 04:56:06;;;;;;;;;;;8.60;99.90;;;;;;5058592;28;19959;-74
2023/10/30 04:58:31;;;;;;;;;;;8.60;99.90;;;;;;5051507;28;20407;-74
2023/10/30 05:00:57;;;;;;;;;;;8.60;99.90;;;;;;5064583;28;19964;-74
2023/10/30 05:03:22;;;;;;;;;;;8.70;99.90;;;;;;5050704;28;20011;-74
2023/10/30 05:05:48;;;;;;;;;;;8.60;99.90;;;;;;5048571;28;20071;-74
2023/10/30 05:08:14;;;;;;;;;;;8.60;99.90;;;;;;5054571;28;19959;-74
2023/10/30 05:10:39;;;;;;;;;;;8.60;99.90;;;;;;5051260;28;19923;-74
2023/10/30 05:13:05;;;;;;;;;;;8.50;99.90;;;;;;5049194;28;19923;-74
2023/10/30 05:15:30;;;;;;;;;;;8.40;99.90;;;;;;5053752;28;20430;-74
2023/10/30 05:17:56;;;;;;;;;;;8.40;99.90;;;;;;5055464;28;19994;-74
2023/10/30 05:20:22;;;;;;;;;;;8.30;99.90;;;;;;5052907;28;19948;-75
2023/10/30 05:22:48;;;;;;;;;;;8.40;99.90;;;;;;5051875;28;20031;-75
2023/10/30 05:25:13;;;;;;;;;;;8.40;99.90;;;;;;5050139;28;19924;-73
2023/10/30 05:27:39;;;;;;;;;;;8.40;99.90;;;;;;5054057;28;20389;-73
2023/10/30 05:30:05;;;;;;;;;;;8.30;99.90;;;;;;5049769;28;19921;-73
2023/10/30 05:32:31;;;;;;;;;;;8.40;99.90;;;;;;5050354;28;19916;-74
2023/10/30 05:34:56;;;;;;;;;;;8.40;99.90;;;;;;5049400;28;20009;-74
2023/10/30 05:37:22;;;;;;;;;;;8.50;99.90;;;;;;5052310;28;19917;-75
2023/10/30 05:39:48;;;;;;;;;;;8.40;99.90;;;;;;5052426;28;19920;-74
2023/10/30 05:42:14;;;;;;;;;;;8.30;99.90;;;;;;5053806;28;19963;-73
2023/10/30 05:44:39;;;;;;;;;;;8.30;99.90;;;;;;5050892;28;20395;-74
2023/10/30 05:47:05;;;;;;;;;;;8.30;99.90;;;;;;5050339;28;19934;-74
2023/10/30 05:49:31;;;;;;;;;;;8.30;99.90;;;;;;5048640;28;20299;-74
2023/10/30 05:51:57;;;;;;;;;;;8.20;99.90;;;;;;5048450;28;19973;-74
2023/10/30 05:54:22;;;;;;;;;;;8.30;99.90;;;;;;5051050;28;20054;-75
2023/10/30 05:56:48;;;;;;;;;;;8.20;99.90;;;;;;5048471;28;19920;-73
2023/10/30 05:59:14;;;;;;;;;;;8.30;99.90;;;;;;5042115;28;19924;-73
2023/10/30 06:01:40;;;;;;;;;;;8.20;99.90;;;;;;5052458;28;19923;-74
2023/10/30 06:04:05;;;;;;;;;;;8.20;99.90;;;;;;5047642;28;19913;-74
2023/10/30 06:06:31;;;;;;;;;;;8.30;99.90;;;;;;5053137;28;19970;-73
2023/10/30 06:08:56;;;;;;;;;;;8.20;99.90;;;;;;5049414;28;19917;-74
2023/10/30 06:11:22;;;;;;;;;;;8.30;99.90;;;;;;5045414;28;19960;-75
2023/10/30 06:13:47;;;;;;;;;;;8.30;99.90;;;;;;5048012;28;19924;-73
2023/10/30 06:16:14;;;;;;;;;;;8.40;99.90;;;;;;5050143;28;19908;-74
2023/10/30 06:18:39;;;;;;;;;;;8.30;99.90;;;;;;5046472;28;19912;-74
2023/10/30 06:21:07;;;;;;;;;;;8.20;99.90;;;;;;5048730;28;19918;-75
2023/10/30 06:23:36;;;;;;;;;;;8.20;99.90;;;;;;5043155;28;19919;-73
2023/10/30 06:26:06;;;;;;;;;;;8.10;99.90;;;;;;5046644;28;19916;-73
2023/10/30 06:28:32;;;;;;;;;;;8.30;99.90;;;;;;5045846;28;19917;-74
2023/10/30 06:30:57;;;;;;;;;;;8.30;99.60;;;;;;5050507;28;19994;-73
2023/10/30 06:33:24;;;;;;;;;;;8.30;99.60;;;;;;5046201;28;20405;-73
2023/10/30 06:35:55;;;;;;;;;;;8.30;99.30;;;;;;5050258;28;20040;-74
2023/10/30 06:38:20;;;;;;;;;;;8.10;99.60;;;;;;5043174;28;19913;-73
2023/10/30 06:40:48;;;;;;;;;;;8.20;99.70;;;;;;5050325;28;19932;-73
2023/10/30 06:43:13;;;;;;;;;;;8.20;99.50;;;;;;5046461;28;19908;-74
2023/10/30 06:45:39;;;;;;;;;;;8.20;99.60;;;;;;5046557;28;19924;-73
2023/10/30 06:48:04;;;;;;;;;;;8.10;99.40;;;;;;5042075;28;19916;-73
2023/10/30 06:50:30;;;;;;;;;;;8.10;99.90;;;;;;5052975;28;19921;-73
2023/10/30 06:52:56;;;;;;;;;;;8.20;99.70;;;;;;5053420;28;19927;-74
2023/10/30 06:55:21;;;;;;;;;;;8.30;99.80;;;;;;5045724;28;19917;-73
2023/10/30 06:57:47;;;;;;;;;;;8.10;99.50;;;;;;5054694;28;19940;-75
2023/10/30 07:00:13;;;;;;;;;;;8.20;99.90;;;;;;5054047;28;20399;-74
2023/10/30 07:02:40;;;;;;;;;;;8.30;99.70;;;;;;5049370;28;19917;-74
2023/10/30 07:05:06;;;;;;;;;;;8.30;99.50;;;;;;5047291;28;19917;-73
2023/10/30 07:07:32;;;;;;;;;;;8.40;99.20;;;;;;5053616;28;19920;-75
2023/10/30 07:09:57;;;;;;;;;;;8.30;99.30;;;;;;5053063;28;20377;-74
2023/10/30 07:12:23;;;;;;;;;;;8.30;99.40;;;;;;5051142;28;19928;-74
2023/10/30 07:14:48;;;;;;;;;;;8.30;99.60;;;;;;5051023;28;19925;-73
2023/10/30 07:17:14;;;;;;;;;;;8.40;99.70;;;;;;5054547;28;19913;-74
2023/10/30 07:19:40;;;;;;;;;;;8.60;99.70;;;;;;5047152;28;19917;-78
2023/10/30 07:22:05;;;;;;;;;;;8.50;99.50;;;;;;5057379;28;20430;-78
2023/10/30 07:24:31;;;;;;;;;;;8.70;99.60;;;;;;5052830;28;20411;-77
2023/10/30 07:26:57;;;;;;;;;;;8.80;99.00;;;;;;5050800;28;19913;-76
2023/10/30 07:29:23;;;;;;;;;;;9.00;99.10;;;;;;5055231;28;19923;-81
2023/10/30 07:31:49;;;;;;;;;;;8.90;98.70;;;;;;5049970;28;19917;-76
2023/10/30 07:34:15;;;;;;;;;;;8.90;98.40;;;;;;5055322;28;19974;-77
2023/10/30 07:36:41;;;;;;;;;;;8.90;98.70;;;;;;5052449;28;19909;-78
2023/10/30 07:39:07;;;;;;;;;;;9.00;98.90;;;;;;5049352;28;19967;-79
2023/10/30 07:41:33;;;;;;;;;;;9.20;98.30;;;;;;5050583;28;19924;-80
2023/10/30 07:43:59;;;;;;;;;;;9.30;98.60;;;;;;5053247;28;19916;-78
2023/10/30 07:46:25;;;;;;;;;;;9.30;97.50;;;;;;5054180;28;19912;-82
2023/10/30 07:48:50;;;;;;;;;;;9.20;97.90;;;;;;5048577;28;20502;-78
2023/10/30 07:51:16;;;;;;;;;;;9.20;97.70;;;;;;5054428;28;20390;-78
2023/10/30 07:53:42;;;;;;;;;;;9.30;97.50;;;;;;5055390;28;19921;-79
2023/10/30 07:56:08;;;;;;;;;;;9.30;97.10;;;;;;5057238;28;19962;-79
2023/10/30 07:58:34;;;;;;;;;;;9.30;97.50;;;;;;5052013;28;20530;-78
2023/10/30 08:00:59;;;;;;;;;;;9.20;96.90;;;;;;5052385;28;19920;-76
2023/10/30 08:03:25;;;;;;;;;;;9.30;96.70;;;;;;5053358;28;19966;-74
2023/10/30 08:05:51;;;;;;;;;;;9.20;97.00;;;;;;5054069;28;19912;-76
2023/10/30 08:08:17;;;;;;;;;;;9.10;97.30;;;;;;5051075;28;19923;-79
2023/10/30 08:10:44;;;;;;;;;;;9.30;97.20;;;;;;5051613;28;20015;-77
2023/10/30 08:13:09;;;;;;;;;;;9.30;97.10;;;;;;5046986;28;19963;-78
2023/10/30 08:15:35;;;;;;;;;;;9.40;97.10;;;;;;5053643;28;19921;-79
2023/10/30 08:18:02;;;;;;;;;;;9.30;96.70;;;;;;5054264;28;19909;-77
2023/10/30 08:20:28;;;;;;;;;;;9.40;96.60;;;;;;5055638;28;19909;-76
2023/10/30 08:22:54;;;;;;;;;;;9.50;96.10;;;;;;5048488;28;19913;-78
2023/10/30 08:25:19;;;;;;;;;;;9.50;96.00;;;;;;5051926;28;19917;-77
2023/10/30 08:27:45;;;;;;;;;;;9.50;95.80;;;;;;5052671;28;19917;-80
2023/10/30 08:30:10;;;;;;;;;;;9.80;96.00;;;;;;5049309;28;19916;-81
2023/10/30 08:32:39;;;;;;;;;;;9.90;95.20;;;;;;5051587;28;19929;-81
2023/10/30 08:35:05;;;;;;;;;;;10.10;94.60;;;;;;5049613;28;20432;-83
2023/10/30 08:37:31;;;;;;;;;;;9.80;94.30;;;;;;5051773;28;19916;-82
2023/10/30 08:39:56;;;;;;;;;;;9.70;94.20;;;;;;5050499;28;19970;-80
2023/10/30 08:42:22;;;;;;;;;;;9.80;94.30;;;;;;5050534;28;19913;-82
2023/10/30 08:44:47;;;;;;;;;;;9.70;94.30;;;;;;5045963;28;20252;-78
2023/10/30 08:47:14;;;;;;;;;;;9.90;94.20;;;;;;5053534;28;19917;-80
2023/10/30 08:49:40;;;;;;;;;;;10.00;94.00;;;;;;5050463;28;20367;-79
2023/10/30 08:52:05;;;;;;;;;;;10.30;93.80;;;;;;5057524;28;19915;-79
2023/10/30 08:54:31;;;;;;;;;;;10.40;92.90;;;;;;5041931;28;20011;-77
2023/10/30 08:56:57;;;;;;;;;;;10.30;93.10;;;;;;5053058;28;19913;-77
2023/10/30 08:59:24;;;;;;;;;;;10.00;93.00;;;;;;5041844;28;19909;-77
2023/10/30 09:01:49;;;;;;;;;;;10.10;93.40;;;;;;5052041;28;20563;-80
2023/10/30 09:04:15;;;;;;;;;;;10.30;93.90;;;;;;5052605;28;19916;-82
2023/10/30 09:06:42;;;;;;;;;;;10.50;93.10;;;;;;5050158;28;20093;-80
2023/10/30 09:09:11;;;;;;;;;;;10.60;92.00;;;;;;5049543;28;19920;-79
2023/10/30 09:11:36;;;;;;;;;;;10.50;92.90;;;;;;5052285;28;19939;-78
2023/10/30 09:14:02;;;;;;;;;;;10.70;92.20;;;;;;5051299;28;19916;-81
2023/10/30 09:16:27;;;;;;;;;;;10.60;92.10;;;;;;5053472;28;19983;-82
2023/10/30 09:18:54;;;;;;;;;;;10.70;92.10;;;;;;5053488;28;20007;-81
2023/10/30 09:21:20;;;;;;;;;;;10.70;92.00;;;;;;5055596;28;19977;-79
2023/10/30 09:23:46;;;;;;;;;;;10.80;92.00;;;;;;5056176;28;19916;-79
2023/10/30 09:26:11;;;;;;;;;;;10.70;92.20;;;;;;5055070;28;20039;-80
2023/10/30 09:28:37;;;;;;;;;;;10.90;92.30;;;;;;5048575;28;19961;-78
2023/10/30 09:31:03;;;;;;;;;;;10.80;92.40;;;;;;5052989;28;20519;-80
2023/10/30 09:33:28;;;;;;;;;;;11.00;92.10;;;;;;5054405;28;19924;-80
2023/10/30 09:35:54;;;;;;;;;;;10.90;92.10;;;;;;5052196;28;19912;-78
2023/10/30 09:38:19;;;;;;;;;;;11.00;91.50;;;;;;5056975;28;19917;-80
2023/10/30 09:40:51;;;;;;;;;;;11.10;91.30;;;;;;5049468;28;20646;-68
2023/10/30 09:43:17;;;;;;;;;;;10.90;91.90;;;;;;5050041;28;19913;-83
2023/10/30 09:45:43;;;;;;;;;;;11.00;92.30;;;;;;5054062;28;19919;-85
2023/10/30 09:48:09;;;;;;;;;;;11.10;92.10;;;;;;5050471;28;20295;-82
2023/10/30 09:50:38;;;;;;;;;;;11.30;91.90;;;;;;5051665;28;19952;-86
2023/10/30 09:53:05;;;;;;;;;;;11.50;91.60;;;;;;5055081;28;19912;-85
2023/10/30 09:55:31;;;;;;;;;;;11.50;91.90;;;;;;5049789;28;19913;-84
2023/10/30 09:57:56;;;;;;;;;;;11.50;91.70;;;;;;5056217;28;19920;-84
2023/10/30 10:00:22;;;;;;;;;;;11.60;91.70;;;;;;5052259;28;19908;-83
2023/10/30 10:02:47;;;;;;;;;;;11.70;91.10;;;;;;5031790;28;19919;-83
2023/10/30 10:05:14;;;;;;;;;;;11.80;91.10;;;;;;5048783;28;19912;-80
2023/10/30 10:07:40;;;;;;;;;;;12.00;91.00;;;;;;5047022;28;19962;-82
2023/10/30 10:10:06;;;;;;;;;;;12.30;90.60;;;;;;5056689;28;20481;-80
2023/10/30 10:12:36;;;;;;;;;;;12.40;90.60;;;;;;5051972;28;19971;-82
2023/10/30 10:15:03;;;;;;;;;;;12.50;90.40;;;;;;5052756;28;19924;-85
2023/10/30 10:17:29;;;;;;;;;;;12.40;90.50;;;;;;5050703;28;19987;-83
2023/10/30 10:19:55;;;;;;;;;;;12.60;90.20;;;;;;5057686;28;19917;-81
2023/10/30 10:22:30;;;;;;;;;;;12.80;89.30;;;;;;5048158;28;19921;-82
2023/10/30 10:24:56;;;;;;;;;;;12.90;89.00;;;;;;5052389;28;20392;-79
2023/10/30 10:27:22;;;;;;;;;;;13.20;87.60;;;;;;5058947;28;20366;-79
2023/10/30 10:29:54;;;;;;;;;;;13.20;87.10;;;;;;5047771;28;19924;-82
2023/10/30 10:32:26;;;;;;;;;;;13.50;85.70;;;;;;5050631;28;19908;-81
2023/10/30 10:34:52;;;;;;;;;;;13.70;83.80;;;;;;5050384;28;19920;-82
2023/10/30 10:37:18;;;;;;;;;;;13.70;84.80;;;;;;5052351;28;19908;-80
2023/10/30 10:39:51;;;;;;;;;;;13.60;83.60;;;;;;5048823;28;19913;-82
2023/10/30 10:42:20;;;;;;;;;;;13.70;83.40;;;;;;5051415;28;19973;-81
2023/10/30 10:44:46;;;;;;;;;;;13.80;82.90;;;;;;5046013;28;20389;-81
2023/10/30 10:47:12;;;;;;;;;;;13.60;82.60;;;;;;5050662;28;19916;-82
2023/10/30 10:49:38;;;;;;;;;;;13.40;83.30;;;;;;5049854;28;20337;-81
2023/10/30 10:52:05;;;;;;;;;;;13.60;83.30;;;;;;5052813;28;19912;-80
2023/10/30 10:54:35;;;;;;;;;;;13.50;82.40;;;;;;5051128;28;19948;-82
2023/10/30 10:57:01;;;;;;;;;;;13.50;82.80;;;;;;5047390;28;20382;-84
2023/10/30 10:59:30;;;;;;;;;;;13.50;81.60;;;;;;5045478;28;19912;-86
2023/10/30 11:01:56;;;;;;;;;;;13.10;83.50;;;;;;5044743;28;19920;-83
2023/10/30 11:04:23;;;;;;;;;;;13.00;83.80;;;;;;5047811;28;19920;-83
2023/10/30 11:06:56;;;;;;;;;;;12.90;82.70;;;;;;5051321;28;19993;-79
2023/10/30 11:09:24;;;;;;;;;;;13.00;82.50;;;;;;5043706;28;19936;-73
2023/10/30 11:12:03;;;;;;;;;;;12.90;83.60;;;;;;5048056;28;19920;-73
2023/10/30 11:14:38;;;;;;;;;;;13.00;83.40;;;;;;5045310;28;19921;-73
2023/10/30 11:17:05;;;;;;;;;;;13.10;84.50;;;;;;5044511;28;20454;-73
2023/10/30 11:19:37;;;;;;;;;;;13.10;84.70;;;;;;5045274;28;19909;-73
2023/10/30 11:22:03;;;;;;;;;;;13.30;85.30;;;;;;5045393;28;19920;-72
2023/10/30 11:24:36;;;;;;;;;;;13.30;84.50;;;;;;5048788;28;19924;-73
2023/10/30 11:27:22;;;;;;;;;;;13.50;84.60;;;;;;5042066;28;19912;-73
2023/10/30 11:29:54;;;;;;;;;;;13.50;84.80;;;;;;5041615;28;19930;-73
2023/10/30 11:32:20;;;;;;;;;;;13.30;85.80;;;;;;5040606;28;19917;-73
2023/10/30 11:34:46;;;;;;;;;;;13.40;85.00;;;;;;5050971;28;20405;-73
2023/10/30 11:37:13;;;;;;;;;;;13.40;84.00;;;;;;5054680;28;19916;-74
2023/10/30 11:39:39;;;;;;;;;;;13.10;84.70;;;;;;5046698;28;19966;-74
2023/10/30 11:42:25;;;;;;;;;;;13.20;85.00;;;;;;5055922;28;19904;-73
2023/10/30 11:44:51;;;;;;;;;;;13.20;85.10;;;;;;5048274;28;19916;-73
2023/10/30 11:47:23;;;;;;;;;;;13.30;85.20;;;;;;5051585;28;20003;-74
2023/10/30 11:49:48;;;;;;;;;;;13.30;85.50;;;;;;5049285;28;19942;-73
2023/10/30 11:52:14;;;;;;;;;;;13.30;85.80;;;;;;5056791;28;19916;-71
2023/10/30 11:54:40;;;;;;;;;;;13.60;86.10;;;;;;5050576;28;20287;-73
2023/10/30 11:57:06;;;;;;;;;;;13.60;84.60;;;;;;5047884;28;19917;-73
2023/10/30 11:59:32;;;;;;;;;;;13.50;84.20;;;;;;5055635;28;19920;-73
2023/10/30 12:01:58;;;;;;;;;;;13.60;83.80;;;;;;5054057;28;20541;-73
2023/10/30 12:04:24;;;;;;;;;;;13.60;83.90;;;;;;5049438;28;19982;-72
2023/10/30 12:06:50;;;;;;;;;;;13.80;83.80;;;;;;5052623;28;20059;-73
2023/10/30 12:09:18;;;;;;;;;;;14.30;82.30;;;;;;5057133;28;20019;-72
2023/10/30 12:11:44;;;;;;;;;;;14.30;81.80;;;;;;5053461;28;20266;-73
2023/10/30 12:14:13;;;;;;;;;;;14.60;81.40;;;;;;5047431;28;19949;-73
2023/10/30 12:16:44;;;;;;;;;;;14.60;80.60;;;;;;5052227;28;19977;-72
2023/10/30 12:19:09;;;;;;;;;;;14.80;80.10;;;;;;5055866;28;19912;-73
2023/10/30 12:21:36;;;;;;;;;;;14.50;80.70;;;;;;5048562;28;19935;-72
2023/10/30 12:24:01;;;;;;;;;;;14.50;80.50;;;;;;5052667;28;19913;-79
2023/10/30 12:26:27;;;;;;;;;;;14.30;80.40;;;;;;5054729;28;20280;-80
2023/10/30 12:28:59;;;;;;;;;;;14.20;80.80;;;;;;5052811;28;19951;-77
2023/10/30 12:31:26;;;;;;;;;;;14.30;81.00;;;;;;5047415;28;19920;-84
2023/10/30 12:34:22;;;;;;;;;;;14.30;81.70;;;;;;5049895;28;19966;-79
2023/10/30 12:36:48;;;;;;;;;;;14.20;82.40;;;;;;5056267;28;20566;-80
2023/10/30 12:39:17;;;;;;;;;;;14.10;82.10;;;;;;5056633;28;19913;-79
2023/10/30 12:41:47;;;;;;;;;;;14.00;82.20;;;;;;5057485;28;19917;-79
2023/10/30 12:44:19;;;;;;;;;;;14.00;82.50;;;;;;5057654;28;19943;-79
2023/10/30 12:46:45;;;;;;;;;;;13.90;83.80;;;;;;5049207;28;19966;-81
2023/10/30 12:49:11;;;;;;;;;;;14.10;82.40;;;;;;5053311;28;20529;-79
2023/10/30 12:51:36;;;;;;;;;;;14.20;81.30;;;;;;5057868;28;20290;-81
2023/10/30 12:54:02;;;;;;;;;;;14.10;81.40;;;;;;5047533;28;20382;-79
2023/10/30 12:56:27;;;;;;;;;;;14.10;81.70;;;;;;5051653;28;19963;-79
2023/10/30 12:58:53;;;;;;;;;;;14.10;79.10;;;;;;5049437;28;20012;-79
2023/10/30 13:01:19;;;;;;;;;;;14.00;80.40;;;;;;5057830;28;20709;-81
2023/10/30 13:03:44;;;;;;;;;;;13.80;82.00;;;;;;5053426;28;19917;-76
2023/10/30 13:06:10;;;;;;;;;;;13.70;81.10;;;;;;5053542;28;19919;-78
2023/10/30 13:08:36;;;;;;;;;;;13.70;81.30;;;;;;5054952;28;19919;-78
2023/10/30 13:11:03;;;;;;;;;;;13.70;80.90;;;;;;5049319;28;19917;-78
2023/10/30 13:13:29;;;;;;;;;;;13.80;80.20;;;;;;5053283;28;20336;-76
2023/10/30 13:15:55;;;;;;;;;;;13.70;81.60;;;;;;5051857;28;19908;-78
2023/10/30 13:18:20;;;;;;;;;;;13.70;81.20;;;;;;5052151;28;20379;-77
2023/10/30 13:20:46;;;;;;;;;;;13.70;82.30;;;;;;5054604;28;20625;-80
2023/10/30 13:23:11;;;;;;;;;;;13.50;82.00;;;;;;5042505;28;19921;-80
2023/10/30 13:25:37;;;;;;;;;;;13.50;82.10;;;;;;5033648;28;19986;-77
2023/10/30 13:28:03;;;;;;;;;;;13.40;82.80;;;;;;5035985;28;19921;-77
2023/10/30 13:30:28;;;;;;;;;;;13.50;81.20;;;;;;5031201;28;19996;-78
2023/10/30 13:32:56;;;;;;;;;;;13.70;82.50;;;;;;5034325;28;19978;-80
2023/10/30 13:35:22;;;;;;;;;;;13.70;82.00;;;;;;5040836;28;19932;-77
2023/10/30 13:37:48;;;;;;;;;;;13.70;82.40;;;;;;5046458;28;19920;-78
2023/10/30 13:40:14;;;;;;;;;;;13.90;81.10;;;;;;5043697;28;19913;-80
2023/10/30 13:42:39;;;;;;;;;;;14.00;80.30;;;;;;5040702;28;20345;-77
2023/10/30 13:45:05;;;;;;;;;;;13.70;80.60;;;;;;5035024;28;19966;-75
2023/10/30 13:47:31;;;;;;;;;;;13.70;80.90;;;;;;5035940;28;20006;-77
2023/10/30 13:49:57;;;;;;;;;;;13.80;81.10;;;;;;5036772;28;19913;-79
2023/10/30 13:52:23;;;;;;;;;;;13.80;81.00;;;;;;5038999;28;19916;-77
2023/10/30 13:54:50;;;;;;;;;;;13.70;80.90;;;;;;5037568;28;19931;-80
2023/10/30 13:57:16;;;;;;;;;;;13.80;81.90;;;;;;5039307;28;20011;-76
2023/10/30 13:59:42;;;;;;;;;;;13.90;81.80;;;;;;5039500;28;19917;-81
2023/10/30 14:02:07;;;;;;;;;;;13.80;81.20;;;;;;5042392;28;20427;-78
2023/10/30 14:04:33;;;;;;;;;;;13.90;80.50;;;;;;5043867;28;20880;-77
2023/10/30 14:06:59;;;;;;;;;;;13.80;80.60;;;;;;5042468;28;19944;-76
2023/10/30 14:09:24;;;;;;;;;;;13.60;81.60;;;;;;5039809;28;19921;-78
2023/10/30 14:11:50;;;;;;;;;;;13.50;83.00;;;;;;5039549;28;19920;-77
2023/10/30 14:14:17;;;;;;;;;;;13.50;82.90;;;;;;5038075;28;19924;-77
2023/10/30 14:16:43;;;;;;;;;;;13.40;80.90;;;;;;5041705;28;19916;-76
2023/10/30 14:19:08;;;;;;;;;;;13.40;81.50;;;;;;5043019;28;20187;-76
2023/10/30 14:21:34;;;;;;;;;;;13.30;82.40;;;;;;5047766;28;19923;-76